createdAt,value
2022-08-25T00:01:52.093Z,3.17
2022-08-25T00:04:39.365Z,2.70
2022-08-25T00:07:29.423Z,3.05
2022-08-25T00:10:16.857Z,3.42
2022-08-25T00:13:06.853Z,2.83
2022-08-25T00:15:54.061Z,3.08
2022-08-25T00:18:45.112Z,2.80
2022-08-25T00:21:33.447Z,3.30
2022-08-25T00:24:23.199Z,3.25
2022-08-25T00:27:12.645Z,3.20
2022-08-25T00:30:00.311Z,3.20
2022-08-25T00:32:55.096Z,3.50
2022-08-25T00:35:45.175Z,3.05
2022-08-25T00:38:32.574Z,3.50
2022-08-25T00:41:25.803Z,3.42
2022-08-25T00:44:17.470Z,3.80
2022-08-25T00:47:07.475Z,3.40
2022-08-25T00:49:58.904Z,3.42
2022-08-25T00:52:51.318Z,3.00
2022-08-25T00:55:41.058Z,3.22
2022-08-25T00:58:32.824Z,3.80
2022-08-25T01:01:20.400Z,3.78
2022-08-25T01:04:08.380Z,3.78
2022-08-25T01:06:57.676Z,4.07
2022-08-25T01:09:47.805Z,3.78
2022-08-25T01:12:35.067Z,3.78
2022-08-25T01:15:24.916Z,4.10
2022-08-25T01:18:12.116Z,3.90
2022-08-25T01:21:01.421Z,4.13
2022-08-25T01:23:50.319Z,4.43
2022-08-25T01:26:38.092Z,4.03
2022-08-25T01:29:26.407Z,4.30
2022-08-25T01:32:15.790Z,4.00
2022-08-25T01:35:03.099Z,4.43
2022-08-25T01:37:51.822Z,4.35
2022-08-25T01:40:40.968Z,4.18
2022-08-25T01:43:38.101Z,4.38
2022-08-25T01:46:25.407Z,4.43
2022-08-25T01:49:13.026Z,4.40
2022-08-25T01:52:06.798Z,4.30
2022-08-25T01:54:55.310Z,5.10
2022-08-25T01:57:42.410Z,4.75
2022-08-25T02:00:29.881Z,5.00
2022-08-25T02:03:19.915Z,4.60
2022-08-25T02:06:08.846Z,4.80
2022-08-25T02:09:01.126Z,4.88
2022-08-25T02:11:50.014Z,4.53
2022-08-25T02:14:37.939Z,4.57
2022-08-25T02:17:25.418Z,4.78
2022-08-25T02:20:13.039Z,4.95
2022-08-25T02:23:00.465Z,4.90
2022-08-25T02:25:47.489Z,4.72
2022-08-25T02:28:37.155Z,5.10
2022-08-25T02:31:27.031Z,5.10
2022-08-25T02:34:15.247Z,4.70
2022-08-25T02:37:02.552Z,4.78
2022-08-25T02:39:50.279Z,5.47
2022-08-25T02:42:37.520Z,5.20
2022-08-25T02:45:26.029Z,5.38
2022-08-25T02:48:13.603Z,4.85
2022-08-25T02:51:02.586Z,5.15
2022-08-25T02:53:49.986Z,5.43
2022-08-25T02:56:37.504Z,4.97
2022-08-25T02:59:24.888Z,5.35
2022-08-25T03:02:13.569Z,5.18
2022-08-25T03:05:00.830Z,4.68
2022-08-25T03:07:48.281Z,5.75
2022-08-25T03:10:36.658Z,5.40
2022-08-25T03:13:24.000Z,5.60
2022-08-25T03:16:12.343Z,5.43
2022-08-25T03:19:02.163Z,5.57
2022-08-25T03:21:52.439Z,5.28
2022-08-25T03:24:39.512Z,4.97
2022-08-25T03:27:25.919Z,5.75
2022-08-25T03:30:14.364Z,5.60
2022-08-25T03:33:01.618Z,5.32
2022-08-25T03:35:50.184Z,5.38
2022-08-25T03:38:38.444Z,5.93
2022-08-25T03:41:29.679Z,5.43
2022-08-25T03:44:19.286Z,5.38
2022-08-25T03:47:07.710Z,4.93
2022-08-25T03:49:54.807Z,4.95
2022-08-25T03:52:43.716Z,5.72
2022-08-25T03:55:31.236Z,5.63
2022-08-25T03:58:20.415Z,5.25
2022-08-25T04:01:07.778Z,5.28
2022-08-25T04:03:55.511Z,5.40
2022-08-25T04:06:44.343Z,5.60
2022-08-25T04:09:36.757Z,5.45
2022-08-25T04:12:24.920Z,5.70
2022-08-25T04:15:12.880Z,5.70
2022-08-25T04:18:00.348Z,5.15
2022-08-25T04:20:48.441Z,5.55
2022-08-25T04:23:35.796Z,5.72
2022-08-25T04:26:27.187Z,5.95
2022-08-25T04:29:17.370Z,5.35
2022-08-25T04:32:05.413Z,5.53
2022-08-25T04:34:53.107Z,5.20
2022-08-25T04:37:40.659Z,5.95
2022-08-25T04:40:29.090Z,5.75
2022-08-25T04:43:18.128Z,5.88
2022-08-25T04:46:08.416Z,5.35
2022-08-25T04:48:58.300Z,5.47
2022-08-25T04:51:46.996Z,5.75
2022-08-25T04:54:37.026Z,5.93
2022-08-25T04:57:24.771Z,5.95
2022-08-25T05:00:15.413Z,5.78
2022-08-25T05:03:02.842Z,5.57
2022-08-25T05:05:53.388Z,5.90
2022-08-25T05:08:40.798Z,5.97
2022-08-25T05:11:28.333Z,5.57
2022-08-25T05:14:18.270Z,6.30
2022-08-25T05:17:07.114Z,6.20
2022-08-25T05:19:54.151Z,6.53
2022-08-25T05:22:42.672Z,6.15
2022-08-25T05:25:30.000Z,6.97
2022-08-25T05:28:17.938Z,5.47
2022-08-25T05:31:06.498Z,6.10
2022-08-25T05:33:57.544Z,6.43
2022-08-25T05:36:44.610Z,5.78
2022-08-25T05:39:33.885Z,6.28
2022-08-25T05:42:22.514Z,5.75
2022-08-25T05:45:14.337Z,5.47
2022-08-25T05:48:07.718Z,6.32
2022-08-25T05:50:59.908Z,6.20
2022-08-25T05:53:50.069Z,6.15
2022-08-25T05:56:37.701Z,6.03
2022-08-25T05:59:25.074Z,6.05
2022-08-25T06:02:30.605Z,6.78
2022-08-25T06:05:21.707Z,5.82
2022-08-25T06:08:11.077Z,7.18
2022-08-25T06:10:58.314Z,5.90
2022-08-25T06:13:46.020Z,6.78
2022-08-25T06:16:33.249Z,6.43
2022-08-25T06:19:21.267Z,7.20
2022-08-25T06:22:08.782Z,6.90
2022-08-25T06:24:57.604Z,6.35
2022-08-25T06:27:44.927Z,6.50
2022-08-25T06:30:32.127Z,7.47
2022-08-25T06:33:19.596Z,6.10
2022-08-25T06:36:07.699Z,6.38
2022-08-25T06:38:54.948Z,6.60
2022-08-25T06:41:43.948Z,6.25
2022-08-25T06:44:31.382Z,5.90
2022-08-25T06:47:19.313Z,6.18
2022-08-25T06:50:07.471Z,6.55
2022-08-25T06:52:54.683Z,5.97
2022-08-25T06:55:41.997Z,7.00
2022-08-25T06:58:30.471Z,6.78
2022-08-25T07:01:22.225Z,6.60
2022-08-25T07:04:12.885Z,6.43
2022-08-25T07:07:00.821Z,6.15
2022-08-25T07:09:48.342Z,7.15
2022-08-25T07:12:35.844Z,6.40
2022-08-25T07:15:24.534Z,6.30
2022-08-25T07:18:12.886Z,7.22
2022-08-25T07:21:00.831Z,6.65
2022-08-25T07:23:48.714Z,6.03
2022-08-25T07:26:38.622Z,6.63
2022-08-25T07:29:31.907Z,6.15
2022-08-25T07:32:21.485Z,6.53
2022-08-25T07:35:19.573Z,6.00
2022-08-25T07:38:10.251Z,6.53
2022-08-25T07:41:04.052Z,6.07
2022-08-25T07:43:51.332Z,6.00
2022-08-25T07:46:39.134Z,6.03
2022-08-25T07:49:35.733Z,6.78
2022-08-25T07:52:26.823Z,6.55
2022-08-25T07:55:17.999Z,6.47
2022-08-25T07:58:08.205Z,6.22
2022-08-25T08:00:55.540Z,6.20
2022-08-25T08:03:50.586Z,5.90
2022-08-25T08:06:41.666Z,6.40
2022-08-25T08:09:31.348Z,5.70
2022-08-25T08:12:19.120Z,6.30
2022-08-25T08:15:10.168Z,6.15
2022-08-25T08:17:58.095Z,5.70
2022-08-25T08:20:47.104Z,5.90
2022-08-25T08:23:35.608Z,5.85
2022-08-25T08:26:36.338Z,6.00
2022-08-25T08:29:30.869Z,5.18
2022-08-25T08:32:19.033Z,5.78
2022-08-25T08:35:08.053Z,5.72
2022-08-25T08:37:55.486Z,6.10
2022-08-25T08:41:12.945Z,6.13
2022-08-25T08:44:08.909Z,5.90
2022-08-25T08:47:09.071Z,5.47
2022-08-25T08:50:05.056Z,6.05
2022-08-25T08:53:02.088Z,6.20
2022-08-25T08:55:56.165Z,6.40
2022-08-25T08:58:49.881Z,6.35
2022-08-25T09:01:47.834Z,6.03
2022-08-25T09:04:46.957Z,6.05
2022-08-25T09:07:42.193Z,5.93
2022-08-25T09:10:43.209Z,5.68
2022-08-25T09:13:46.282Z,5.60
2022-08-25T09:16:58.864Z,5.47
2022-08-25T09:20:18.790Z,5.07
2022-08-25T09:23:22.518Z,5.03
2022-08-25T09:26:30.064Z,5.90
2022-08-25T09:29:25.383Z,5.30
2022-08-25T09:32:12.930Z,5.88
2022-08-25T09:35:04.373Z,5.82
2022-08-25T09:38:00.024Z,6.20
2022-08-25T09:40:50.330Z,5.65
2022-08-25T09:43:43.157Z,5.72
2022-08-25T09:46:31.857Z,5.65
2022-08-25T09:49:18.918Z,5.68
2022-08-25T09:52:33.145Z,5.40
2022-08-25T09:55:32.414Z,5.97
2022-08-25T09:58:24.154Z,5.70
2022-08-25T10:01:17.958Z,5.47
2022-08-25T10:04:13.931Z,5.65
2022-08-25T10:07:25.506Z,5.32
2022-08-25T10:10:24.889Z,5.35
2022-08-25T10:13:16.294Z,5.22
2022-08-25T10:16:25.229Z,4.90
2022-08-25T10:19:25.258Z,4.63
2022-08-25T10:22:25.020Z,4.65
2022-08-25T10:25:16.214Z,4.97
2022-08-25T10:28:15.093Z,4.72
2022-08-25T10:31:14.344Z,4.57
2022-08-25T10:34:19.892Z,4.60
2022-08-25T10:37:19.280Z,4.65
2022-08-25T10:40:22.919Z,4.63
2022-08-25T10:43:23.804Z,4.72
2022-08-25T10:46:24.490Z,4.32
2022-08-25T10:49:21.383Z,4.95
2022-08-25T10:52:16.679Z,4.97
2022-08-25T10:55:15.050Z,4.72
2022-08-25T10:58:14.914Z,4.93
2022-08-25T11:01:17.361Z,5.10
2022-08-25T11:04:11.785Z,4.78
2022-08-25T11:07:05.832Z,4.72
2022-08-25T11:10:01.793Z,4.80
2022-08-25T11:12:57.599Z,4.55
2022-08-25T11:16:15.863Z,4.53
2022-08-25T11:19:10.859Z,4.55
2022-08-25T11:22:08.540Z,4.45
2022-08-25T11:25:11.269Z,4.00
2022-08-25T11:28:05.390Z,3.85
2022-08-25T11:30:54.458Z,4.25
2022-08-25T11:33:42.011Z,4.28
2022-08-25T11:36:33.464Z,4.45
2022-08-25T11:39:41.247Z,4.28
2022-08-25T11:42:44.176Z,4.60
2022-08-25T11:45:56.371Z,4.20
2022-08-25T11:48:57.380Z,4.32
2022-08-25T11:51:48.727Z,4.50
2022-08-25T11:54:44.696Z,4.70
2022-08-25T11:57:33.488Z,4.25
2022-08-25T12:00:40.961Z,4.38
2022-08-25T12:03:54.063Z,4.47
2022-08-25T12:07:27.604Z,4.50
2022-08-25T12:10:20.978Z,4.50
2022-08-25T12:13:42.997Z,4.50
2022-08-25T12:17:00.426Z,3.83
2022-08-25T12:19:58.975Z,4.45
2022-08-25T12:23:01.029Z,4.60
2022-08-25T12:25:54.739Z,4.60
2022-08-25T12:29:01.137Z,4.03
2022-08-25T12:32:07.036Z,4.20
2022-08-25T12:35:29.838Z,4.05
2022-08-25T12:38:30.114Z,4.40
2022-08-25T12:41:24.347Z,4.60
2022-08-25T12:44:41.572Z,4.28
2022-08-25T12:47:33.868Z,4.60
2022-08-25T12:50:40.516Z,4.20
2022-08-25T12:53:37.395Z,4.40
2022-08-25T12:56:35.088Z,4.53
2022-08-25T12:59:37.104Z,4.82
2022-08-25T13:03:00.249Z,4.35
2022-08-25T13:06:48.405Z,4.40
2022-08-25T13:10:18.126Z,4.43
2022-08-25T13:13:12.801Z,3.83
2022-08-25T13:16:03.619Z,4.40
2022-08-25T13:18:51.887Z,4.68
2022-08-25T13:21:41.672Z,4.40
2022-08-25T13:24:31.930Z,4.53
2022-08-25T13:27:29.789Z,4.18
2022-08-25T13:30:27.639Z,4.55
2022-08-25T13:33:21.837Z,4.80
2022-08-25T13:36:35.695Z,4.22
2022-08-25T13:39:52.710Z,4.22
2022-08-25T13:42:33.420Z,4.25
2022-08-25T13:45:24.607Z,4.57
2022-08-25T13:48:13.793Z,4.53
2022-08-25T13:51:21.524Z,4.60
2022-08-25T13:54:21.010Z,4.15
2022-08-25T13:57:18.428Z,4.30
2022-08-25T14:00:10.384Z,4.18
2022-08-25T14:02:59.911Z,4.35
2022-08-25T14:05:47.557Z,4.15
2022-08-25T14:08:38.521Z,4.50
2022-08-25T14:11:33.390Z,4.22
2022-08-25T14:14:36.149Z,4.20
2022-08-25T14:17:39.064Z,4.15
2022-08-25T14:20:31.330Z,4.13
2022-08-25T14:23:24.193Z,4.22
2022-08-25T14:26:11.982Z,4.50
2022-08-25T14:28:59.242Z,4.15
2022-08-25T14:31:47.794Z,4.05
2022-08-25T14:34:38.420Z,4.00
2022-08-25T14:37:32.434Z,4.60
2022-08-25T14:40:20.140Z,4.20
2022-08-25T14:43:09.688Z,4.50
2022-08-25T14:45:57.448Z,4.30
2022-08-25T14:48:48.948Z,4.28
2022-08-25T14:51:37.507Z,4.45
2022-08-25T14:54:28.963Z,4.30
2022-08-25T14:57:16.437Z,4.07
2022-08-25T15:00:05.435Z,4.38
2022-08-25T15:02:57.543Z,3.85
2022-08-25T15:05:45.566Z,4.32
2022-08-25T15:08:49.994Z,3.92
2022-08-25T15:11:41.809Z,4.00
2022-08-25T15:14:33.435Z,4.20
2022-08-25T15:17:20.693Z,4.75
2022-08-25T15:20:09.422Z,4.50
2022-08-25T15:22:58.743Z,4.43
2022-08-25T15:25:49.033Z,4.57
2022-08-25T15:28:44.706Z,4.53
2022-08-25T15:31:31.929Z,4.72
2022-08-25T15:34:20.490Z,4.05
2022-08-25T15:37:10.938Z,4.10
2022-08-25T15:39:58.328Z,4.30
2022-08-25T15:42:45.835Z,4.07
2022-08-25T15:45:36.263Z,3.97
2022-08-25T15:48:23.367Z,4.00
2022-08-25T15:51:12.301Z,3.90
2022-08-25T15:54:00.215Z,4.47
2022-08-25T15:56:48.077Z,4.65
2022-08-25T15:59:35.383Z,4.40
2022-08-25T16:02:24.647Z,4.63
2022-08-25T16:05:12.359Z,4.10
2022-08-25T16:08:00.747Z,4.53
2022-08-25T16:10:49.869Z,4.07
2022-08-25T16:13:36.851Z,4.40
2022-08-25T16:16:32.407Z,4.30
2022-08-25T16:19:20.979Z,4.15
2022-08-25T16:22:08.933Z,4.40
2022-08-25T16:24:58.458Z,4.50
2022-08-25T16:27:46.593Z,4.55
2022-08-25T16:30:33.623Z,4.50
2022-08-25T16:33:22.782Z,3.85
2022-08-25T16:36:14.553Z,4.22
2022-08-25T16:39:02.056Z,4.68
2022-08-25T16:41:49.559Z,4.05
2022-08-25T16:44:39.916Z,4.20
2022-08-25T16:47:27.858Z,4.05
2022-08-25T16:50:17.017Z,4.30
2022-08-25T16:53:23.969Z,4.13
2022-08-25T16:56:11.647Z,3.60
2022-08-25T16:59:00.633Z,4.00
2022-08-25T17:01:48.147Z,3.83
2022-08-25T17:04:35.672Z,3.53
2022-08-25T17:07:24.738Z,4.00
2022-08-25T17:10:13.583Z,3.78
2022-08-25T17:13:00.605Z,3.78
2022-08-25T17:15:52.417Z,3.67
2022-08-25T17:18:40.620Z,3.70
2022-08-25T17:21:32.457Z,3.78
2022-08-25T17:24:20.208Z,3.92
2022-08-25T17:27:09.737Z,4.18
2022-08-25T17:29:58.084Z,3.80
2022-08-25T17:32:45.701Z,3.92
2022-08-25T17:35:41.390Z,3.80
2022-08-25T17:38:30.232Z,3.97
2022-08-25T17:41:20.743Z,4.43
2022-08-25T17:44:09.362Z,4.25
2022-08-25T17:46:57.398Z,4.65
2022-08-25T17:49:44.363Z,4.15
2022-08-25T17:52:31.811Z,3.97
2022-08-25T17:55:21.839Z,4.63
2022-08-25T17:58:09.894Z,4.30
2022-08-25T18:01:00.519Z,4.38
2022-08-25T18:03:47.665Z,4.68
2022-08-25T18:06:35.168Z,4.57
2022-08-25T18:09:22.673Z,4.78
2022-08-25T18:12:09.836Z,4.68
2022-08-25T18:14:59.163Z,4.90
2022-08-25T18:17:48.312Z,4.43
2022-08-25T18:20:36.267Z,4.40
2022-08-25T18:23:25.295Z,4.55
2022-08-25T18:26:14.035Z,4.90
2022-08-25T18:29:01.611Z,5.00
2022-08-25T18:31:49.051Z,4.90
2022-08-25T18:34:38.501Z,4.57
2022-08-25T18:37:43.425Z,4.60
2022-08-25T18:40:33.003Z,4.65
2022-08-25T18:43:21.404Z,4.50
2022-08-25T18:46:09.985Z,4.80
2022-08-25T18:48:57.125Z,4.78
2022-08-25T18:51:46.169Z,4.80
2022-08-25T18:54:33.475Z,4.30
2022-08-25T18:57:23.555Z,4.32
2022-08-25T19:00:15.874Z,4.88
2022-08-25T19:03:03.224Z,5.45
2022-08-25T19:05:53.952Z,4.35
2022-08-25T19:08:46.527Z,5.20
2022-08-25T19:11:34.459Z,5.15
2022-08-25T19:14:21.482Z,4.70
2022-08-25T19:17:09.749Z,5.28
2022-08-25T19:19:58.698Z,5.45
2022-08-25T19:22:45.907Z,5.22
2022-08-25T19:25:34.684Z,5.32
2022-08-25T19:28:22.085Z,5.55
2022-08-25T19:31:09.925Z,5.32
2022-08-25T19:33:58.756Z,4.97
2022-08-25T19:36:46.941Z,4.90
2022-08-25T19:39:39.129Z,5.38
2022-08-25T19:42:35.085Z,5.38
2022-08-25T19:45:25.335Z,5.47
2022-08-25T19:48:14.041Z,4.80
2022-08-25T19:51:01.682Z,5.30
2022-08-25T19:53:53.619Z,5.57
2022-08-25T19:56:54.825Z,5.07
2022-08-25T19:59:47.309Z,5.15
2022-08-25T20:02:36.764Z,5.65
2022-08-25T20:05:24.880Z,5.45
2022-08-25T20:08:12.409Z,5.57
2022-08-25T20:10:59.941Z,4.93
2022-08-25T20:13:47.051Z,5.47
2022-08-25T20:16:38.655Z,5.63
2022-08-25T20:19:25.863Z,4.97
2022-08-25T20:22:17.757Z,5.60
2022-08-25T20:25:13.377Z,5.40
2022-08-25T20:28:01.646Z,5.50
2022-08-25T20:30:49.162Z,5.22
2022-08-25T20:33:38.018Z,5.07
2022-08-25T20:36:27.352Z,5.25
2022-08-25T20:39:14.759Z,5.93
2022-08-25T20:42:02.640Z,4.95
2022-08-25T20:44:50.210Z,5.20
2022-08-25T20:47:37.797Z,4.55
2022-08-25T20:50:27.445Z,5.03
2022-08-25T20:53:15.327Z,5.20
2022-08-25T20:56:03.019Z,5.28
2022-08-25T20:58:50.259Z,5.10
2022-08-25T21:01:42.327Z,5.20
2022-08-25T21:04:31.536Z,5.10
2022-08-25T21:07:20.245Z,5.35
2022-08-25T21:10:10.222Z,6.28
2022-08-25T21:12:58.239Z,5.57
2022-08-25T21:15:48.548Z,5.70
2022-08-25T21:18:37.523Z,5.38
2022-08-25T21:21:26.157Z,5.22
2022-08-25T21:24:15.466Z,5.97
2022-08-25T21:27:03.735Z,6.03
2022-08-25T21:29:55.028Z,5.60
2022-08-25T21:32:53.123Z,5.22
2022-08-25T21:35:42.893Z,5.60
2022-08-25T21:38:30.425Z,5.25
2022-08-25T21:41:23.000Z,5.63
2022-08-25T21:44:11.534Z,5.45
2022-08-25T21:46:58.668Z,5.55
2022-08-25T21:49:46.019Z,5.07
2022-08-25T21:52:33.163Z,6.07
2022-08-25T21:55:20.743Z,5.97
2022-08-25T21:58:10.707Z,6.00
2022-08-25T22:00:57.817Z,5.72
2022-08-25T22:03:47.087Z,5.75
2022-08-25T22:06:35.236Z,5.53
2022-08-25T22:09:22.875Z,5.55
2022-08-25T22:12:11.108Z,5.75
2022-08-25T22:14:59.594Z,5.38
2022-08-25T22:17:48.026Z,6.53
2022-08-25T22:20:35.815Z,5.38
2022-08-25T22:23:28.186Z,5.88
2022-08-25T22:26:16.876Z,5.85
2022-08-25T22:29:09.507Z,5.55
2022-08-25T22:32:02.042Z,6.03
2022-08-25T22:34:49.919Z,5.55
2022-08-25T22:37:37.237Z,5.70
2022-08-25T22:40:24.535Z,5.30
2022-08-25T22:43:11.722Z,5.28
2022-08-25T22:46:03.122Z,5.47
2022-08-25T22:48:52.124Z,5.57
2022-08-25T22:51:39.841Z,6.60
2022-08-25T22:54:27.221Z,5.78
2022-08-25T22:57:14.481Z,5.82
2022-08-25T23:00:01.594Z,6.03
2022-08-25T23:02:53.207Z,6.00
2022-08-25T23:05:42.319Z,6.00
2022-08-25T23:08:39.397Z,5.25
2022-08-25T23:11:29.058Z,6.28
2022-08-25T23:14:16.913Z,6.00
2022-08-25T23:17:07.568Z,6.35
2022-08-25T23:19:55.090Z,6.15
2022-08-25T23:22:43.056Z,5.53
2022-08-25T23:25:30.215Z,5.90
2022-08-25T23:28:17.769Z,5.90
2022-08-25T23:31:08.642Z,6.40
2022-08-25T23:33:59.399Z,5.45
2022-08-25T23:36:49.872Z,5.95
2022-08-25T23:39:40.788Z,5.70
2022-08-25T23:42:28.385Z,5.57
2022-08-25T23:45:15.956Z,5.70
2022-08-25T23:48:04.483Z,5.72
2022-08-25T23:50:54.179Z,5.90
2022-08-25T23:53:41.601Z,5.88
2022-08-25T23:56:30.963Z,6.45
2022-08-25T23:59:18.620Z,5.65
